Flight Track Log - Related Links

Times and Time Zones

All times are in EDT time to prevent confusion due to time zone crossing. See the AAL2007 flight status page for this flight to view local times or setup timezone preferences in your user account.

Time Position Orientation Groundspeed Altitude Reporting Facility
EDT Latitude Longitude Course Direction KTS MPH feet Rate Location/Type
Sun 06:40:09 PM 41.9167 -87.9167 207° Southwest 179 206 2,700  Level Chicago TRACON
Sun 06:41:00 PM 41.7990 -88.0898 201° Southwest  Level Estimated
Sun 06:41:09 PM 41.8500 -87.9333 191° South 236 272 4,100  Level Chicago TRACON
Sun 06:41:51 PM 41.8133 -87.9597 208° Southwest 245 282 6,000 2,712 Climbing Chicago Center
Sun 06:42:00 PM 41.6851 -88.0861 179° South  Level FlightAware Approximate
Sun 06:42:53 PM 41.7433 -87.9961 201° Southwest 267 307 8,800  Level Chicago Center
Sun 06:43:00 PM 41.5941 -88.1777 197° South  Level Estimated
Sun 06:43:56 PM 41.6728 -88.0344 202° Southwest 275 316 11,200  Level Chicago Center
Sun 06:44:00 PM 41.5029 -88.2691 194° South  Level Estimated
Sun 06:44:58 PM 41.5978 -88.0750 202° Southwest 289 333 13,400  Level Chicago Center
Sun 06:45:00 PM 41.4146 -88.3573 207° Southwest  Level Estimated
Sun 06:46:00 PM 41.5008 -88.1289 203° Southwest 321 369 15,100  Level Chicago Center
Sun 06:47:02 PM 41.4136 -88.1758 202° Southwest 348 400 17,200 1,887 Climbing Chicago Center
Sun 06:48:04 PM 41.3197 -88.2194 199° South 364 419 19,000 1,645 Climbing Chicago Center
Sun 06:49:06 PM 41.2236 -88.2625 199° South 369 425 20,600 1,790 Climbing Chicago Center
Sun 06:50:08 PM 41.1047 -88.3153 198° South 376 433 22,700 1,694 Climbing Chicago Center
Sun 06:51:10 PM 41.0042 -88.3631 200° South 383 441 24,100 1,355 Climbing Chicago Center
Sun 06:52:12 PM 40.9017 -88.4072 198° South 390 449 25,500 1,113 Climbing Chicago Center
Sun 06:53:14 PM 40.8161 -88.4931 217° Southwest 393 452 26,400 1,000 Climbing Chicago Center
Sun 06:55:18 PM 40.6267 -88.7208 222° Southwest 427 491 28,600 935 Climbing Chicago Center
Sun 06:56:20 PM 40.5364 -88.8253 221° Southwest 433 498 29,300 1,103 Climbing Chicago Center
Sun 06:58:00 PM 40.4049 -88.9938 224° Southwest  Level FlightAware Approximate
Sun 06:58:23 PM 40.3592 -89.0264 224° Southwest 429 494 32,000  Level Kansas City Center
Sun 06:59:25 PM 40.2719 -89.1269 221° Southwest 419 482 32,000  Level Kansas City Center
Sun 07:00:27 PM 40.1700 -89.2531 223° Southwest 423 487 32,000  Level Kansas City Center
Sun 07:01:31 PM 40.1186 -89.3900 244° Southwest 426 490 32,000  Level Chicago Center
Sun 07:02:31 PM 40.0739 -89.5264 221° Southwest 415 478 32,000  Level Kansas City Center
Sun 07:03:00 PM 39.9699 -89.5003 221° Southwest  Level FlightAware Approximate
Sun 07:03:33 PM 40.0317 -89.6661 249° West 416 479 32,000  Level Kansas City Center
Sun 07:04:35 PM 39.9939 -89.8056 251° West 410 472 32,000  Level Kansas City Center
Sun 07:05:37 PM 39.9544 -89.9453 250° West 409 471 32,000  Level Kansas City Center
Sun 07:06:39 PM 39.9006 -90.0806 243° Southwest 425 489 32,000  Level Kansas City Center
Sun 07:07:41 PM 39.7886 -90.1922 217° Southwest 423 487 32,000  Level Kansas City Center
Sun 07:08:43 PM 39.6981 -90.2842 218° Southwest 427 491 32,000  Level Kansas City Center
Sun 07:09:45 PM 39.6047 -90.3781 218° Southwest 427 491 32,000  Level Kansas City Center
Sun 07:10:00 PM 39.3775 -90.1417 221° Southwest  Level FlightAware Approximate
Sun 07:10:47 PM 39.5100 -90.4717 217° Southwest 429 494 32,000  Level Kansas City Center
Sun 07:11:50 PM 39.4158 -90.5667 218° Southwest 430 495 32,000  Level Kansas City Center
Sun 07:12:52 PM 39.3003 -90.6733 216° Southwest 429 494 32,000  Level Kansas City Center
Sun 07:13:54 PM 39.1972 -90.7519 211° Southwest 431 496 32,000  Level Kansas City Center
Sun 07:14:56 PM 39.0975 -90.8317 212° Southwest 429 494 32,000  Level Kansas City Center
Sun 07:15:58 PM 39.0069 -90.9256 219° Southwest 431 496 32,000  Level Kansas City Center
Sun 07:17:00 PM 38.9142 -91.0164 217° Southwest 427 491 32,000  Level Kansas City Center
Sun 07:18:02 PM 38.8036 -91.1242 217° Southwest 422 486 32,000  Level Kansas City Center
Sun 07:19:04 PM 38.7094 -91.2153 217° Southwest 426 490 32,000  Level Kansas City Center
Sun 07:20:06 PM 38.6158 -91.3067 217° Southwest 427 491 32,000  Level Kansas City Center
Sun 07:21:08 PM 38.5153 -91.4056 218° Southwest 425 489 32,000  Level Kansas City Center
Sun 07:22:10 PM 38.4200 -91.4953 216° Southwest 424 488 32,000  Level Kansas City Center
Sun 07:23:12 PM 38.3250 -91.5872 217° Southwest 426 490 32,000  Level Kansas City Center
Sun 07:24:14 PM 38.2367 -91.6822 220° Southwest 420 483 32,000  Level Kansas City Center
Sun 07:25:16 PM 38.1569 -91.7917 227° Southwest 420 483 32,000  Level Kansas City Center
Sun 07:26:18 PM 38.0633 -91.9208 227° Southwest 414 476 32,000  Level Kansas City Center
Sun 07:27:20 PM 37.9900 -92.0333 230° Southwest 412 474 32,000  Level Kansas City Center
Sun 07:28:22 PM 37.9258 -92.1367 232° Southwest 418 481 32,000  Level Kansas City Center
Sun 07:29:24 PM 37.8372 -92.2697 230° Southwest 414 476 32,000  Level Kansas City Center
Sun 07:30:26 PM 37.7617 -92.3842 230° Southwest 422 486 32,000  Level Kansas City Center
Sun 07:31:28 PM 37.6875 -92.4975 230° Southwest 422 486 32,000  Level Kansas City Center
Sun 07:32:30 PM 37.5992 -92.5933 221° Southwest 413 475 32,000  Level Kansas City Center
Sun 07:33:32 PM 37.5067 -92.6875 219° Southwest 419 482 32,000  Level Kansas City Center
Sun 07:34:34 PM 37.3992 -92.7567 207° Southwest 427 491 32,000  Level Kansas City Center
Sun 07:35:36 PM 37.2758 -92.8567 213° Southwest 434 499 32,000 387 Level Kansas City Center
Sun 07:36:38 PM 37.1722 -92.9364 212° Southwest 435 501 32,800 871 Climbing Kansas City Center
Sun 07:37:40 PM 37.0694 -93.0158 212° Southwest 434 499 33,800 581 Climbing Kansas City Center
Sun 07:38:42 PM 36.9661 -93.0936 211° Southwest 432 497 34,000 97 Climbing Kansas City Center
Sun 07:39:44 PM 36.8617 -93.1742 212° Southwest 430 495 34,000  Level Kansas City Center
Sun 07:40:45 PM 36.7597 -93.2506 211° Southwest 428 493 34,000  Level Kansas City Center
Sun 07:41:47 PM 36.6581 -93.3283 212° Southwest 430 495 34,000  Level Kansas City Center
Sun 07:42:49 PM 36.5553 -93.4053 211° Southwest 431 496 34,000  Level Kansas City Center
Sun 07:43:51 PM 36.4322 -93.5014 212° Southwest 435 501 34,000  Level Kansas City Center
Sun 07:44:44 PM 36.3467 -93.5647 211° Southwest 444 511 34,000  Level Memphis Center
Sun 07:45:44 PM 36.2425 -93.6406 210° Southwest 439 505 34,000  Level Memphis Center
Sun 07:46:44 PM 36.1383 -93.7186 211° Southwest 439 505 34,000  Level Memphis Center
Sun 07:47:44 PM 36.0342 -93.7989 212° Southwest 439 505 34,000  Level Memphis Center
Sun 07:48:44 PM 35.9275 -93.8767 211° Southwest 439 505 34,000  Level Memphis Center
Sun 07:49:44 PM 35.8233 -93.9542 211° Southwest 439 505 34,000  Level Memphis Center
Sun 07:50:44 PM 35.7147 -94.0311 210° Southwest 439 505 34,000  Level Memphis Center
Sun 07:51:44 PM 35.6100 -94.1083 211° Southwest 447 514 34,000  Level Memphis Center
Sun 07:52:44 PM 35.5033 -94.1875 211° Southwest 442 509 34,000  Level Memphis Center
Sun 07:53:44 PM 35.3947 -94.2667 211° Southwest 447 514 34,000  Level Memphis Center
Sun 07:54:44 PM 35.2919 -94.3458 212° Southwest 447 514 34,000  Level Memphis Center
Sun 07:56:38 PM 35.0786 -94.5139 213° Southwest 451 519 34,000  Level Fort Worth Center
Sun 07:57:38 PM 34.9719 -94.5933 211° Southwest 451 519 34,000  Level Fort Worth Center
Sun 07:58:38 PM 34.8694 -94.6678 211° Southwest 450 518 34,000  Level Fort Worth Center
Sun 07:59:38 PM 34.7608 -94.7547 213° Southwest 450 518 34,000  Level Fort Worth Center
Sun 08:00:38 PM 34.6558 -94.8336 212° Southwest 450 518 34,000  Level Fort Worth Center
Sun 08:01:38 PM 34.5492 -94.9125 211° Southwest 450 518 34,000  Level Fort Worth Center
Sun 08:02:38 PM 34.4422 -94.9911 211° Southwest 450 518 34,000  Level Fort Worth Center
Sun 08:03:38 PM 34.3331 -95.0747 212° Southwest 455 524 34,000  Level Fort Worth Center
Sun 08:04:38 PM 34.2194 -95.1381 205° Southwest 455 524 34,000  Level Fort Worth Center
Sun 08:05:38 PM 34.1017 -95.1936 201° Southwest 455 524 34,000  Level Fort Worth Center
Sun 08:06:38 PM 33.9836 -95.2469 201° Southwest 455 524 34,000  Level Fort Worth Center
Sun 08:07:38 PM 33.8614 -95.2947 198° South 455 524 34,000  Level Fort Worth Center
Sun 08:08:38 PM 33.7389 -95.3353 195° South 455 524 34,000 -1,150 Level Fort Worth Center
Sun 08:09:38 PM 33.6206 -95.3706 194° South 455 524 31,700 -2,450 Descending Fort Worth Center
Sun 08:10:38 PM 33.4914 -95.4008 191° South 455 524 29,100 -1,850 Descending Fort Worth Center
Sun 08:11:38 PM 33.3753 -95.4458 198° South 448 516 28,000 -550 Descending Fort Worth Center
Sun 08:12:38 PM 33.2681 -95.5228 211° Southwest 437 503 28,000  Level Fort Worth Center
Sun 08:13:38 PM 33.1939 -95.5889 217° Southwest 432 497 28,000  Level Fort Worth Center
Sun 08:14:39 PM 33.0864 -95.6753 214° Southwest 432 497 28,000  Level Fort Worth Center
Sun 08:15:38 PM 32.9875 -95.7564 215° Southwest 432 497 28,000  Level Fort Worth Center
Sun 08:16:38 PM 32.8883 -95.8425 216° Southwest 442 509 28,000  Level Fort Worth Center
Sun 08:17:38 PM 32.7911 -95.9233 215° Southwest 442 509 28,000  Level Fort Worth Center
Sun 08:18:38 PM 32.6897 -96.0039 214° Southwest 442 509 28,000  Level Fort Worth Center
Sun 08:19:38 PM 32.5906 -96.0869 215° Southwest 442 509 28,000  Level Fort Worth Center
Sun 08:20:38 PM 32.4911 -96.1694 215° Southwest 442 509 28,000  Level Fort Worth Center
Sun 08:21:38 PM 32.3917 -96.2522 215° Southwest 442 509 28,000  Level Fort Worth Center
Sun 08:22:38 PM 32.2944 -96.3319 215° Southwest 442 509 28,000  Level Fort Worth Center
Sun 08:23:38 PM 32.1928 -96.4142 214° Southwest 442 509 28,000 -100 Level Fort Worth Center
Sun 08:24:38 PM 32.0911 -96.4964 214° Southwest 447 514 27,800 -450 Descending Fort Worth Center
Sun 08:25:38 PM 31.9853 -96.5856 216° Southwest 461 531 27,100 -700 Descending Fort Worth Center
Sun 08:26:38 PM 31.8814 -96.6694 214° Southwest 461 531 26,400 -600 Descending Fort Worth Center
Sun 08:27:38 PM 31.7794 -96.7558 216° Southwest 456 525 25,900 -650 Descending Fort Worth Center
Sun 08:28:38 PM 31.6650 -96.8447 213° Southwest 456 525 25,100 -797 Descending Fort Worth Center
Sun 08:29:46 PM 31.5525 -96.9344 214° Southwest 442 509 24,200 -791 Descending Houston Center
Sun 08:30:47 PM 31.4511 -97.0161 215° Southwest 438 504 23,400 -780 Descending Houston Center
Sun 08:31:49 PM 31.3500 -97.0961 214° Southwest 436 502 22,600 -1,306 Descending Houston Center
Sun 08:32:51 PM 31.2394 -97.1508 203° Southwest 427 491 20,700 -2,000 Descending Houston Center
Sun 08:33:52 PM 31.1336 -97.2036 203° Southwest 413 475 18,500 -2,341 Descending Houston Center
Sun 08:34:54 PM 31.0308 -97.2544 203° Southwest 402 463 15,900 -2,274 Descending Houston Center
Sun 08:35:56 PM 30.9186 -97.3119 204° Southwest 396 456 13,800 -1,512 Descending Houston Center
Sun 08:36:57 PM 30.8272 -97.3558 202° Southwest 362 417 12,800 -1,073 Descending Houston Center
Sun 08:37:59 PM 30.7328 -97.3933 199° South 356 410 11,600 -1,073 Descending Houston Center
Sun 08:39:00 PM 30.6469 -97.4336 202° Southwest 333 383 10,600 -1,317 Descending Houston Center
Sun 08:40:02 PM 30.5847 -97.4950 220° Southwest 295 339 8,900 -1,887 Descending Houston Center
Sun 08:41:04 PM 30.5206 -97.5469 215° Southwest 282 325 6,700 -2,146 Descending Houston Center
Sun 08:42:05 PM 30.4611 -97.5964 216° Southwest 269 310 4,500 -1,951 Descending Houston Center
Sun 08:43:07 PM 30.4028 -97.6403 213° Southwest 253 291 2,700 -1,171 Descending Houston Center
Sun 08:44:08 PM 30.3347 -97.6611 195° South 226 260 2,100 -590 Descending Houston Center

Login

Don't have an account? Register now (free) for customized features, flight alerts, and more!